createdAt,value
2019-06-26T00:01:13.729Z,20.00
2019-06-26T00:03:44.151Z,19.90
2019-06-26T00:06:14.689Z,19.90
2019-06-26T00:08:45.207Z,19.90
2019-06-26T00:11:18.444Z,19.80
2019-06-26T00:13:48.800Z,19.80
2019-06-26T00:16:19.283Z,19.70
2019-06-26T00:18:49.724Z,19.60
2019-06-26T00:21:22.065Z,19.60
2019-06-26T00:23:52.480Z,19.60
2019-06-26T00:26:22.956Z,19.50
2019-06-26T00:28:59.175Z,19.60
2019-06-26T00:31:29.784Z,19.50
2019-06-26T00:34:00.643Z,19.50
2019-06-26T00:36:32.300Z,19.50
2019-06-26T00:39:03.587Z,19.60
2019-06-26T00:41:34.177Z,19.50
2019-06-26T00:44:04.615Z,19.50
2019-06-26T00:46:35.219Z,19.40
2019-06-26T00:49:05.890Z,19.40
2019-06-26T00:51:36.296Z,19.40
2019-06-26T00:54:06.876Z,19.30
2019-06-26T00:56:37.495Z,19.40
2019-06-26T00:59:07.957Z,19.40
2019-06-26T01:01:38.589Z,19.30
2019-06-26T01:04:13.907Z,19.30
2019-06-26T01:06:44.454Z,19.30
2019-06-26T01:09:16.368Z,19.40
2019-06-26T01:11:46.877Z,19.30
2019-06-26T01:14:19.445Z,19.30
2019-06-26T01:16:49.484Z,19.30
2019-06-26T01:19:20.082Z,19.40
2019-06-26T01:21:50.878Z,19.30
2019-06-26T01:24:21.425Z,19.20
2019-06-26T01:26:51.991Z,19.20
2019-06-26T01:29:22.587Z,19.10
2019-06-26T01:31:53.064Z,19.20
2019-06-26T01:34:23.578Z,19.20
2019-06-26T01:36:54.005Z,19.20
2019-06-26T01:39:24.479Z,19.10
2019-06-26T01:41:55.050Z,19.10
2019-06-26T01:44:25.526Z,19.00
2019-06-26T01:46:56.163Z,19.00
2019-06-26T01:49:26.724Z,19.10
2019-06-26T01:51:57.169Z,19.10
2019-06-26T01:54:27.680Z,19.10
2019-06-26T01:56:58.199Z,18.90
2019-06-26T01:59:28.525Z,19.00
2019-06-26T02:02:17.963Z,19.10
2019-06-26T02:04:48.499Z,19.00
2019-06-26T02:07:19.014Z,19.00
2019-06-26T02:09:49.567Z,19.10
2019-06-26T02:12:19.987Z,19.00
2019-06-26T02:14:50.458Z,19.00
2019-06-26T02:17:20.890Z,18.80
2019-06-26T02:19:51.309Z,18.60
2019-06-26T02:22:21.748Z,18.60
2019-06-26T02:24:52.265Z,18.50
2019-06-26T02:27:22.788Z,18.50
2019-06-26T02:29:53.234Z,18.50
2019-06-26T02:32:23.691Z,18.50
2019-06-26T02:34:54.158Z,18.50
2019-06-26T02:37:24.597Z,18.40
2019-06-26T02:39:55.063Z,18.50
2019-06-26T02:42:25.535Z,18.50
2019-06-26T02:44:55.849Z,18.60
2019-06-26T02:47:26.327Z,18.50
2019-06-26T02:49:56.746Z,18.50
2019-06-26T02:52:27.167Z,18.50
2019-06-26T02:54:57.620Z,18.50
2019-06-26T02:57:28.077Z,18.50
2019-06-26T02:59:58.496Z,18.40
2019-06-26T03:02:28.968Z,18.30
2019-06-26T03:04:59.440Z,18.30
2019-06-26T03:07:29.832Z,18.20
2019-06-26T03:10:00.275Z,18.20
2019-06-26T03:12:30.704Z,18.20
2019-06-26T03:15:08.947Z,18.10
2019-06-26T03:17:33.334Z,18.10
2019-06-26T03:20:03.911Z,18.20
2019-06-26T03:22:34.478Z,18.10
2019-06-26T03:25:05.296Z,18.10
2019-06-26T03:27:35.830Z,18.10
2019-06-26T03:30:07.005Z,18.10
2019-06-26T03:32:37.474Z,18.10
2019-06-26T03:35:08.684Z,18.20
2019-06-26T03:37:39.154Z,18.20
2019-06-26T03:40:11.118Z,18.20
2019-06-26T03:42:41.625Z,18.20
2019-06-26T03:45:25.046Z,18.30
2019-06-26T03:47:45.981Z,18.40
2019-06-26T03:50:17.401Z,18.50
2019-06-26T03:52:47.848Z,18.50
2019-06-26T03:55:18.523Z,18.60
2019-06-26T03:57:48.969Z,18.50
2019-06-26T04:00:30.767Z,18.60
2019-06-26T04:03:01.154Z,18.60
2019-06-26T04:05:31.589Z,18.70
2019-06-26T04:08:02.024Z,18.60
2019-06-26T04:10:32.413Z,18.60
2019-06-26T04:13:02.747Z,18.70
2019-06-26T04:15:42.034Z,18.90
2019-06-26T04:18:05.449Z,19.00
2019-06-26T04:20:35.942Z,19.10
2019-06-26T04:23:06.386Z,19.10
2019-06-26T04:25:38.301Z,19.20
2019-06-26T04:28:08.944Z,19.30
2019-06-26T04:30:39.626Z,19.30
2019-06-26T04:33:10.154Z,19.20
2019-06-26T04:35:40.568Z,19.20
2019-06-26T04:38:11.001Z,19.20
2019-06-26T04:40:41.457Z,19.20
2019-06-26T04:43:11.863Z,19.20
2019-06-26T04:45:57.262Z,19.30
2019-06-26T04:48:14.598Z,19.30
2019-06-26T04:50:44.969Z,19.40
2019-06-26T04:53:15.503Z,19.40
2019-06-26T04:55:45.973Z,19.60
2019-06-26T04:58:16.370Z,19.60
2019-06-26T05:00:46.756Z,19.70
2019-06-26T05:03:17.438Z,19.80
2019-06-26T05:05:47.881Z,19.90
2019-06-26T05:08:18.335Z,20.00
2019-06-26T05:10:48.774Z,20.20
2019-06-26T05:13:19.231Z,20.30
2019-06-26T05:15:49.614Z,20.40
2019-06-26T05:18:20.054Z,20.60
2019-06-26T05:20:50.679Z,20.90
2019-06-26T05:23:21.098Z,21.10
2019-06-26T05:25:51.460Z,21.20
2019-06-26T05:28:21.977Z,21.40
2019-06-26T05:30:52.494Z,21.50
2019-06-26T05:33:23.025Z,21.70
2019-06-26T05:35:53.531Z,21.70
2019-06-26T05:38:23.927Z,21.80
2019-06-26T05:40:54.384Z,22.00
2019-06-26T05:43:24.935Z,22.10
2019-06-26T05:45:55.331Z,22.10
2019-06-26T05:48:25.792Z,22.20
2019-06-26T05:50:56.169Z,22.30
2019-06-26T05:53:26.671Z,22.40
2019-06-26T05:55:57.137Z,22.50
2019-06-26T05:58:27.584Z,22.50
2019-06-26T06:00:58.133Z,22.70
2019-06-26T06:03:28.569Z,22.80
2019-06-26T06:05:59.075Z,23.00
2019-06-26T06:08:29.471Z,23.10
2019-06-26T06:10:59.940Z,23.30
2019-06-26T06:13:30.356Z,23.50
2019-06-26T06:16:00.830Z,23.60
2019-06-26T06:18:31.285Z,23.70
2019-06-26T06:21:03.500Z,23.90
2019-06-26T06:23:33.793Z,24.00
2019-06-26T06:26:23.384Z,24.20
2019-06-26T06:28:53.886Z,24.30
2019-06-26T06:31:24.349Z,24.40
2019-06-26T06:33:54.733Z,24.50
2019-06-26T06:36:25.150Z,24.70
2019-06-26T06:38:55.510Z,24.80
2019-06-26T06:41:25.888Z,24.80
2019-06-26T06:43:56.239Z,24.90
2019-06-26T06:46:26.701Z,25.10
2019-06-26T06:48:57.143Z,25.30
2019-06-26T06:51:27.567Z,25.40
2019-06-26T06:53:57.989Z,25.40
2019-06-26T06:56:28.441Z,25.60
2019-06-26T06:58:58.917Z,25.70
2019-06-26T07:01:29.415Z,25.90
2019-06-26T07:03:59.908Z,26.10
2019-06-26T07:06:30.365Z,26.20
2019-06-26T07:09:00.811Z,26.30
2019-06-26T07:11:31.167Z,26.60
2019-06-26T07:14:01.740Z,26.70
2019-06-26T07:16:32.210Z,26.90
2019-06-26T07:19:02.702Z,27.00
2019-06-26T07:21:33.262Z,27.10
2019-06-26T07:24:03.588Z,27.10
2019-06-26T07:26:34.013Z,27.20
2019-06-26T07:29:04.388Z,27.50
2019-06-26T07:31:38.359Z,27.60
2019-06-26T07:34:07.164Z,27.50
2019-06-26T07:36:37.724Z,27.80
2019-06-26T07:39:08.650Z,28.00
2019-06-26T07:41:39.127Z,28.20
2019-06-26T07:44:09.657Z,28.50
2019-06-26T07:46:40.071Z,28.60
2019-06-26T07:49:10.780Z,28.80
2019-06-26T07:51:41.255Z,28.80
2019-06-26T07:54:12.346Z,29.00
2019-06-26T07:56:42.796Z,29.00
2019-06-26T07:59:13.280Z,29.30
2019-06-26T08:01:43.687Z,29.50
2019-06-26T08:04:14.190Z,29.80
2019-06-26T08:06:44.701Z,30.10
2019-06-26T08:09:15.258Z,30.40
2019-06-26T08:11:45.688Z,30.60
2019-06-26T08:14:16.180Z,30.80
2019-06-26T08:16:46.660Z,31.10
2019-06-26T08:19:17.137Z,31.30
2019-06-26T08:21:47.522Z,31.50
2019-06-26T08:24:17.999Z,31.80
2019-06-26T08:26:48.511Z,31.80
2019-06-26T08:29:18.893Z,32.00
2019-06-26T08:31:49.413Z,32.20
2019-06-26T08:34:19.911Z,32.40
2019-06-26T08:36:50.980Z,32.80
2019-06-26T08:39:21.623Z,32.90
2019-06-26T08:41:52.132Z,33.20
2019-06-26T08:44:22.705Z,33.30
2019-06-26T08:46:53.157Z,33.30
2019-06-26T08:49:25.937Z,33.50
2019-06-26T08:51:56.560Z,33.60
2019-06-26T08:54:27.074Z,33.60
2019-06-26T08:57:06.443Z,33.80
2019-06-26T08:59:39.271Z,33.90
2019-06-26T09:02:12.775Z,34.10
2019-06-26T09:04:43.343Z,34.40
2019-06-26T09:07:13.818Z,34.50
2019-06-26T09:09:44.474Z,34.50
2019-06-26T09:12:15.097Z,34.60
2019-06-26T09:14:45.563Z,34.30
2019-06-26T09:17:15.889Z,34.40
2019-06-26T09:19:46.453Z,34.70
2019-06-26T09:22:16.950Z,35.00
2019-06-26T09:24:47.345Z,35.00
2019-06-26T09:27:17.695Z,34.90
2019-06-26T09:29:48.254Z,35.00
2019-06-26T09:32:18.691Z,35.10
2019-06-26T09:34:49.062Z,35.30
2019-06-26T09:37:19.520Z,35.70
2019-06-26T09:39:50.163Z,35.90
2019-06-26T09:42:20.466Z,36.20
2019-06-26T09:44:50.961Z,35.90
2019-06-26T09:47:21.375Z,36.10
2019-06-26T09:49:51.849Z,36.40
2019-06-26T09:52:22.296Z,36.40
2019-06-26T09:54:52.772Z,36.20
2019-06-26T09:57:23.210Z,36.40
2019-06-26T09:59:53.674Z,36.30
2019-06-26T10:02:24.144Z,36.30
2019-06-26T10:04:54.709Z,36.40
2019-06-26T10:07:25.162Z,35.60
2019-06-26T10:09:55.615Z,35.50
2019-06-26T10:12:26.571Z,35.90
2019-06-26T10:14:56.998Z,36.20
2019-06-26T10:17:27.484Z,36.20
2019-06-26T10:19:57.966Z,36.10
2019-06-26T10:22:28.410Z,36.40
2019-06-26T10:24:58.810Z,36.50
2019-06-26T10:27:29.399Z,36.70
2019-06-26T10:29:59.929Z,36.50
2019-06-26T10:32:30.355Z,36.70
2019-06-26T10:35:00.790Z,36.30
2019-06-26T10:37:31.225Z,36.60
2019-06-26T10:40:01.695Z,36.80
2019-06-26T10:42:32.202Z,37.30
2019-06-26T10:45:02.719Z,37.30
2019-06-26T10:47:33.191Z,37.30
2019-06-26T10:50:03.686Z,37.30
2019-06-26T10:52:34.265Z,37.40
2019-06-26T10:55:04.707Z,37.20
2019-06-26T10:57:35.209Z,37.50
2019-06-26T11:00:07.150Z,37.40
2019-06-26T11:02:37.703Z,37.40
2019-06-26T11:05:11.030Z,37.80
2019-06-26T11:07:41.630Z,37.90
2019-06-26T11:10:13.581Z,37.60
2019-06-26T11:12:43.959Z,37.70
2019-06-26T11:15:14.939Z,37.90
2019-06-26T11:17:45.694Z,37.60
2019-06-26T11:20:16.324Z,37.80
2019-06-26T11:22:46.886Z,37.80
2019-06-26T11:25:21.103Z,38.20
2019-06-26T11:27:51.571Z,38.60
2019-06-26T11:30:24.319Z,38.60
2019-06-26T11:32:54.830Z,38.20
2019-06-26T11:35:25.322Z,38.40
2019-06-26T11:37:55.798Z,38.20
2019-06-26T11:40:26.847Z,38.60
2019-06-26T11:42:57.393Z,38.60
2019-06-26T11:45:27.953Z,38.10
2019-06-26T11:47:58.504Z,38.20
2019-06-26T11:50:29.109Z,38.90
2019-06-26T11:52:59.587Z,39.10
2019-06-26T11:55:29.994Z,39.50
2019-06-26T11:58:00.513Z,39.60
2019-06-26T12:00:31.401Z,39.70
2019-06-26T12:03:01.915Z,39.00
2019-06-26T12:05:32.355Z,39.50
2019-06-26T12:08:02.812Z,39.90
2019-06-26T12:10:33.289Z,40.10
2019-06-26T12:13:04.374Z,40.40
2019-06-26T12:15:34.960Z,40.40
2019-06-26T12:18:05.318Z,40.10
2019-06-26T12:20:35.869Z,40.20
2019-06-26T12:23:06.266Z,40.40
2019-06-26T12:25:36.766Z,40.30
2019-06-26T12:28:07.599Z,40.20
2019-06-26T12:30:38.053Z,40.30
2019-06-26T12:33:08.524Z,39.80
2019-06-26T12:35:39.008Z,40.00
2019-06-26T12:38:09.501Z,40.10
2019-06-26T12:40:40.053Z,40.10
2019-06-26T12:43:10.535Z,39.90
2019-06-26T12:45:40.995Z,40.60
2019-06-26T12:48:11.627Z,40.60
2019-06-26T12:50:42.150Z,41.00
2019-06-26T12:53:12.640Z,42.00
2019-06-26T12:55:43.136Z,42.40
2019-06-26T12:58:18.102Z,42.10
2019-06-26T13:00:46.482Z,42.20
2019-06-26T13:03:16.952Z,42.30
2019-06-26T13:05:47.510Z,42.50
2019-06-26T13:08:17.993Z,42.50
2019-06-26T13:10:50.339Z,43.80
2019-06-26T13:13:20.683Z,44.10
2019-06-26T13:15:51.481Z,44.00
2019-06-26T13:18:22.033Z,44.20
2019-06-26T13:20:53.794Z,44.10
2019-06-26T13:23:24.446Z,44.10
2019-06-26T13:25:54.915Z,44.30
2019-06-26T13:28:25.601Z,43.40
2019-06-26T13:30:56.014Z,43.60
2019-06-26T13:33:26.518Z,43.80
2019-06-26T13:35:57.069Z,43.30
2019-06-26T13:38:27.497Z,43.60
2019-06-26T13:40:57.982Z,43.80
2019-06-26T13:43:28.429Z,43.20
2019-06-26T13:45:59.065Z,42.80
2019-06-26T13:48:29.514Z,42.80
2019-06-26T13:51:09.497Z,42.70
2019-06-26T13:53:32.458Z,41.60
2019-06-26T13:56:03.323Z,41.20
2019-06-26T13:58:33.868Z,40.70
2019-06-26T14:01:04.450Z,39.40
2019-06-26T14:03:34.933Z,38.40
2019-06-26T14:06:05.408Z,37.30
2019-06-26T14:08:55.097Z,36.30
2019-06-26T14:11:25.651Z,35.60
2019-06-26T14:13:56.298Z,35.30
2019-06-26T14:16:29.838Z,35.20
2019-06-26T14:18:59.298Z,35.00
2019-06-26T14:21:29.767Z,35.10
2019-06-26T14:24:00.308Z,34.90
2019-06-26T14:26:30.656Z,34.80
2019-06-26T14:29:01.084Z,34.60
2019-06-26T14:31:31.631Z,34.50
2019-06-26T14:34:02.080Z,34.50
2019-06-26T14:36:32.508Z,34.50
2019-06-26T14:39:02.921Z,34.60
2019-06-26T14:41:34.137Z,34.30
2019-06-26T14:44:04.577Z,34.40
2019-06-26T14:46:35.041Z,34.40
2019-06-26T14:49:05.624Z,34.50
2019-06-26T14:51:43.946Z,34.40
2019-06-26T14:54:08.658Z,34.30
2019-06-26T14:56:39.167Z,34.10
2019-06-26T14:59:09.569Z,33.90
2019-06-26T15:01:40.112Z,33.90
2019-06-26T15:04:10.525Z,33.90
2019-06-26T15:06:40.937Z,33.90
2019-06-26T15:09:11.509Z,34.00
2019-06-26T15:11:42.016Z,33.80
2019-06-26T15:14:12.516Z,33.80
2019-06-26T15:16:42.957Z,33.70
2019-06-26T15:19:13.418Z,33.60
2019-06-26T15:21:57.408Z,33.60
2019-06-26T15:24:16.424Z,33.60
2019-06-26T15:26:46.911Z,33.70
2019-06-26T15:29:17.270Z,34.00
2019-06-26T15:31:47.754Z,34.10
2019-06-26T15:34:18.321Z,34.20
2019-06-26T15:36:48.795Z,34.20
2019-06-26T15:39:19.426Z,34.30
2019-06-26T15:41:50.055Z,34.10
2019-06-26T15:44:20.535Z,33.90
2019-06-26T15:46:51.040Z,33.90
2019-06-26T15:49:21.406Z,33.90
2019-06-26T15:51:51.744Z,33.70
2019-06-26T15:54:22.563Z,33.50
2019-06-26T15:56:53.121Z,33.30
2019-06-26T15:59:23.591Z,33.50
2019-06-26T16:01:57.095Z,33.70
2019-06-26T16:04:27.657Z,33.60
2019-06-26T16:07:01.176Z,33.80
2019-06-26T16:09:31.635Z,33.90
2019-06-26T16:12:02.254Z,33.80
2019-06-26T16:14:32.766Z,34.10
2019-06-26T16:17:07.884Z,34.20
2019-06-26T16:19:38.306Z,34.70
2019-06-26T16:22:08.833Z,35.20
2019-06-26T16:24:39.227Z,35.20
2019-06-26T16:27:09.654Z,36.00
2019-06-26T16:29:40.217Z,36.50
2019-06-26T16:32:10.645Z,37.20
2019-06-26T16:34:41.183Z,37.90
2019-06-26T16:37:11.623Z,38.40
2019-06-26T16:39:42.089Z,38.70
2019-06-26T16:42:12.598Z,39.00
2019-06-26T16:44:43.045Z,39.40
2019-06-26T16:47:13.466Z,39.80
2019-06-26T16:49:44.785Z,39.50
2019-06-26T16:52:15.240Z,39.80
2019-06-26T16:54:45.714Z,39.80
2019-06-26T16:57:16.195Z,39.80
2019-06-26T16:59:46.762Z,39.50
2019-06-26T17:02:17.191Z,39.20
2019-06-26T17:04:47.637Z,38.60
2019-06-26T17:07:18.137Z,37.70
2019-06-26T17:09:48.515Z,36.80
2019-06-26T17:12:19.010Z,35.80
2019-06-26T17:14:49.359Z,34.90
2019-06-26T17:17:19.825Z,34.10
2019-06-26T17:19:50.287Z,33.30
2019-06-26T17:22:20.712Z,32.60
2019-06-26T17:24:51.155Z,32.10
2019-06-26T17:27:21.614Z,31.60
2019-06-26T17:29:52.112Z,31.40
2019-06-26T17:32:22.518Z,31.30
2019-06-26T17:34:52.900Z,31.00
2019-06-26T17:37:23.406Z,30.80
2019-06-26T17:39:53.882Z,30.70
2019-06-26T17:42:24.325Z,30.50
2019-06-26T17:44:54.708Z,30.30
2019-06-26T17:47:25.188Z,30.20
2019-06-26T17:49:55.574Z,30.10
2019-06-26T17:52:25.960Z,30.10
2019-06-26T17:54:56.449Z,30.00
2019-06-26T17:57:26.883Z,29.90
2019-06-26T17:59:57.456Z,29.80
2019-06-26T18:02:27.733Z,29.60
2019-06-26T18:04:58.182Z,29.50
2019-06-26T18:07:28.543Z,29.40
2019-06-26T18:09:58.994Z,29.20
2019-06-26T18:12:29.402Z,29.20
2019-06-26T18:15:00.033Z,29.10
2019-06-26T18:17:30.487Z,29.00
2019-06-26T18:20:00.970Z,28.90
2019-06-26T18:22:31.462Z,28.80
2019-06-26T18:25:01.868Z,28.70
2019-06-26T18:27:32.267Z,28.70
2019-06-26T18:30:04.202Z,28.60
2019-06-26T18:32:34.822Z,28.60
2019-06-26T18:35:05.531Z,28.30
2019-06-26T18:37:35.994Z,28.20
2019-06-26T18:40:08.197Z,28.00
2019-06-26T18:42:38.924Z,28.00
2019-06-26T18:45:09.508Z,27.90
2019-06-26T18:47:39.895Z,27.90
2019-06-26T18:50:11.136Z,27.70
2019-06-26T18:52:41.640Z,27.70
2019-06-26T18:55:12.178Z,27.60
2019-06-26T18:57:42.740Z,27.50
2019-06-26T19:00:14.598Z,27.30
2019-06-26T19:02:45.028Z,27.20
2019-06-26T19:05:15.586Z,27.10
2019-06-26T19:07:46.041Z,27.00
2019-06-26T19:10:16.416Z,26.90
2019-06-26T19:12:46.762Z,26.80
2019-06-26T19:15:17.185Z,26.70
2019-06-26T19:17:47.678Z,26.60
2019-06-26T19:20:19.617Z,26.60
2019-06-26T19:22:50.100Z,26.50
2019-06-26T19:25:20.654Z,26.30
2019-06-26T19:27:51.118Z,26.40
2019-06-26T19:30:21.599Z,26.30
2019-06-26T19:32:51.963Z,26.10
2019-06-26T19:35:22.427Z,26.00
2019-06-26T19:37:52.927Z,25.90
2019-06-26T19:40:24.295Z,25.80
2019-06-26T19:42:55.254Z,25.90
2019-06-26T19:45:25.915Z,25.80
2019-06-26T19:47:56.390Z,25.80
2019-06-26T19:50:26.866Z,25.70
2019-06-26T19:52:57.386Z,25.60
2019-06-26T19:55:28.160Z,25.60
2019-06-26T19:57:58.628Z,25.50
2019-06-26T20:00:29.519Z,25.50
2019-06-26T20:03:00.013Z,25.40
2019-06-26T20:05:30.879Z,25.40
2019-06-26T20:08:01.429Z,25.30
2019-06-26T20:10:32.081Z,25.30
2019-06-26T20:13:02.914Z,25.20
2019-06-26T20:15:33.678Z,25.20
2019-06-26T20:18:04.618Z,25.10
2019-06-26T20:20:35.226Z,25.00
2019-06-26T20:23:05.900Z,25.00
2019-06-26T20:25:36.264Z,24.90
2019-06-26T20:28:06.938Z,24.90
2019-06-26T20:30:37.432Z,25.00
2019-06-26T20:33:07.856Z,25.00
2019-06-26T20:35:39.001Z,24.80
2019-06-26T20:38:09.625Z,24.80
2019-06-26T20:40:40.154Z,24.70
2019-06-26T20:43:10.699Z,24.60
2019-06-26T20:45:41.270Z,24.70
2019-06-26T20:48:11.747Z,24.70
2019-06-26T20:50:42.226Z,24.80
2019-06-26T20:53:12.727Z,24.70
2019-06-26T20:55:45.246Z,24.60
2019-06-26T20:58:15.774Z,24.60
2019-06-26T21:00:46.191Z,24.40
2019-06-26T21:03:16.706Z,24.30
2019-06-26T21:05:47.245Z,24.30
2019-06-26T21:08:17.829Z,24.20
2019-06-26T21:10:48.420Z,24.10
2019-06-26T21:13:19.071Z,24.10
2019-06-26T21:15:52.804Z,24.10
2019-06-26T21:18:21.789Z,24.10
2019-06-26T21:20:52.320Z,24.10
2019-06-26T21:23:23.681Z,24.10
2019-06-26T21:25:54.294Z,24.00
2019-06-26T21:28:24.700Z,24.00
2019-06-26T21:30:55.222Z,24.00
2019-06-26T21:33:25.754Z,24.00
2019-06-26T21:35:56.989Z,24.00
2019-06-26T21:38:27.608Z,24.00
2019-06-26T21:40:58.133Z,23.90
2019-06-26T21:43:28.519Z,23.90
2019-06-26T21:45:58.972Z,23.80
2019-06-26T21:48:29.443Z,23.70
2019-06-26T21:50:59.882Z,23.70
2019-06-26T21:53:30.448Z,23.60
2019-06-26T21:56:00.861Z,23.60
2019-06-26T21:58:31.248Z,23.40
2019-06-26T22:01:01.745Z,23.40
2019-06-26T22:03:32.685Z,23.40
2019-06-26T22:06:03.098Z,23.40
2019-06-26T22:08:33.796Z,23.30
2019-06-26T22:11:04.633Z,23.40
2019-06-26T22:13:35.056Z,23.30
2019-06-26T22:16:05.663Z,23.30
2019-06-26T22:18:37.303Z,23.40
2019-06-26T22:21:07.730Z,23.30
2019-06-26T22:23:38.109Z,23.30
2019-06-26T22:26:08.606Z,23.20
2019-06-26T22:28:38.936Z,23.10
2019-06-26T22:31:09.381Z,23.10
2019-06-26T22:33:39.884Z,23.00
2019-06-26T22:36:10.326Z,22.90
2019-06-26T22:38:40.843Z,22.90
2019-06-26T22:41:11.217Z,22.90
2019-06-26T22:43:41.601Z,22.90
2019-06-26T22:46:12.122Z,22.90
2019-06-26T22:48:42.483Z,22.90
2019-06-26T22:51:12.900Z,22.80
2019-06-26T22:53:43.287Z,22.80
2019-06-26T22:56:13.761Z,22.70
2019-06-26T22:58:44.263Z,22.60
2019-06-26T23:01:14.700Z,22.60
2019-06-26T23:03:45.199Z,22.50
2019-06-26T23:06:15.643Z,22.50
2019-06-26T23:08:46.103Z,22.40
2019-06-26T23:11:16.405Z,22.50
2019-06-26T23:13:46.852Z,22.50
2019-06-26T23:16:17.275Z,22.50
2019-06-26T23:18:47.782Z,22.60
2019-06-26T23:21:18.097Z,22.70
2019-06-26T23:23:48.574Z,22.80
2019-06-26T23:26:23.875Z,22.80
2019-06-26T23:28:51.202Z,22.70
2019-06-26T23:31:21.639Z,22.60
2019-06-26T23:33:52.106Z,22.60
2019-06-26T23:36:22.613Z,22.50
2019-06-26T23:38:53.096Z,22.50
2019-06-26T23:41:23.503Z,22.50
2019-06-26T23:43:53.969Z,22.40
2019-06-26T23:46:24.477Z,22.20
2019-06-26T23:48:54.910Z,22.20
2019-06-26T23:51:25.388Z,22.20
2019-06-26T23:53:55.868Z,22.10
2019-06-26T23:56:39.608Z,22.00
2019-06-26T23:58:58.480Z,21.90
